createdAt,value
2022-10-21T00:02:01.805Z,16.53
2022-10-21T00:04:28.797Z,18.53
2022-10-21T00:06:55.824Z,18.47
2022-10-21T00:09:22.856Z,13.20
2022-10-21T00:11:50.124Z,13.27
2022-10-21T00:14:17.106Z,12.47
2022-10-21T00:16:44.159Z,12.70
2022-10-21T00:19:11.174Z,13.13
2022-10-21T00:21:41.044Z,12.93
2022-10-21T00:24:08.262Z,11.47
2022-10-21T00:26:37.686Z,12.57
2022-10-21T00:29:05.693Z,12.00
2022-10-21T00:31:34.765Z,12.00
2022-10-21T00:34:01.777Z,11.73
2022-10-21T00:36:28.817Z,13.33
2022-10-21T00:38:57.075Z,12.50
2022-10-21T00:41:24.015Z,12.67
2022-10-21T00:44:01.482Z,13.10
2022-10-21T00:46:39.620Z,13.37
2022-10-21T00:49:34.686Z,13.20
2022-10-21T00:52:03.529Z,12.33
2022-10-21T00:54:31.677Z,13.13
2022-10-21T00:56:59.758Z,12.47
2022-10-21T00:59:34.004Z,14.10
2022-10-21T01:02:01.008Z,13.87
2022-10-21T01:04:28.004Z,13.20
2022-10-21T01:06:55.469Z,14.07
2022-10-21T01:09:23.047Z,13.03
2022-10-21T01:11:50.354Z,12.87
2022-10-21T01:14:28.799Z,13.27
2022-10-21T01:17:20.604Z,12.87
2022-10-21T01:20:11.927Z,15.23
2022-10-21T01:23:06.802Z,17.27
2022-10-21T01:25:33.865Z,19.20
2022-10-21T01:28:09.647Z,19.07
2022-10-21T01:30:42.597Z,21.10
2022-10-21T01:33:21.688Z,19.87
2022-10-21T01:35:56.884Z,19.80
2022-10-21T01:38:51.237Z,20.63
2022-10-21T01:41:39.388Z,18.37
2022-10-21T01:44:41.110Z,21.57
2022-10-21T01:47:22.444Z,21.47
2022-10-21T01:49:54.919Z,22.90
2022-10-21T01:52:22.318Z,24.10
2022-10-21T01:54:56.442Z,21.93
2022-10-21T01:57:27.668Z,21.27
2022-10-21T02:00:05.827Z,21.93
2022-10-21T02:02:37.877Z,21.50
2022-10-21T02:05:12.590Z,20.80
2022-10-21T02:07:39.516Z,21.73
2022-10-21T02:10:06.896Z,21.37
2022-10-21T02:12:36.350Z,20.77
2022-10-21T02:15:07.769Z,19.27
2022-10-21T02:17:38.057Z,20.57
2022-10-21T02:20:08.765Z,19.57
2022-10-21T02:22:38.804Z,19.73
2022-10-21T02:25:11.695Z,20.63
2022-10-21T02:27:38.797Z,21.37
2022-10-21T02:30:06.449Z,21.57
2022-10-21T02:32:48.529Z,20.33
2022-10-21T02:35:48.094Z,21.70
2022-10-21T02:38:31.884Z,20.73
2022-10-21T02:41:03.944Z,20.67
2022-10-21T02:43:41.160Z,21.07
2022-10-21T02:46:10.751Z,21.33
2022-10-21T02:48:40.236Z,19.97
2022-10-21T02:51:08.094Z,18.60
2022-10-21T02:53:35.986Z,20.30
2022-10-21T02:56:03.372Z,20.57
2022-10-21T02:58:30.766Z,20.03
2022-10-21T03:00:57.922Z,20.10
2022-10-21T03:03:25.192Z,20.37
2022-10-21T03:05:52.316Z,19.87
2022-10-21T03:08:19.309Z,19.87
2022-10-21T03:10:52.959Z,21.30
2022-10-21T03:13:21.486Z,21.30
2022-10-21T03:15:50.098Z,21.83
2022-10-21T03:18:17.724Z,21.17
2022-10-21T03:20:44.900Z,22.07
2022-10-21T03:23:11.864Z,20.50
2022-10-21T03:25:38.821Z,20.87
2022-10-21T03:28:06.056Z,21.33
2022-10-21T03:30:33.086Z,21.20
2022-10-21T03:33:00.126Z,21.83
2022-10-21T03:35:27.904Z,22.20
2022-10-21T03:37:55.006Z,20.47
2022-10-21T03:40:23.833Z,23.10
2022-10-21T03:42:51.040Z,22.13
2022-10-21T03:45:18.060Z,22.70
2022-10-21T03:47:46.673Z,23.80
2022-10-21T03:50:16.436Z,23.60
2022-10-21T03:52:48.121Z,23.17
2022-10-21T03:55:15.030Z,24.07
2022-10-21T03:57:42.362Z,23.87
2022-10-21T04:00:10.246Z,24.90
2022-10-21T04:02:40.704Z,24.50
2022-10-21T04:05:08.623Z,24.93
2022-10-21T04:07:35.614Z,24.63
2022-10-21T04:10:02.602Z,24.27
2022-10-21T04:12:29.602Z,24.90
2022-10-21T04:14:56.544Z,24.43
2022-10-21T04:17:23.556Z,24.93
2022-10-21T04:19:50.585Z,24.70
2022-10-21T04:22:17.615Z,24.93
2022-10-21T04:24:44.605Z,27.60
2022-10-21T04:27:11.982Z,24.80
2022-10-21T04:29:38.954Z,27.30
2022-10-21T04:32:05.993Z,25.03
2022-10-21T04:34:32.932Z,27.67
2022-10-21T04:37:02.636Z,27.23
2022-10-21T04:39:32.213Z,30.40
2022-10-21T04:41:59.197Z,30.57
2022-10-21T04:44:26.199Z,30.27
2022-10-21T04:46:53.164Z,30.33
2022-10-21T04:49:20.152Z,29.80
2022-10-21T04:51:47.305Z,29.67
2022-10-21T04:54:14.287Z,31.20
2022-10-21T04:56:42.173Z,30.73
2022-10-21T04:59:09.789Z,33.20
2022-10-21T05:01:36.852Z,31.50
2022-10-21T05:04:03.885Z,31.77
2022-10-21T05:06:30.927Z,33.43
2022-10-21T05:08:58.021Z,30.57
2022-10-21T05:11:25.044Z,33.23
2022-10-21T05:13:52.084Z,32.63
2022-10-21T05:16:19.024Z,34.10
2022-10-21T05:18:46.018Z,32.17
2022-10-21T05:21:13.089Z,31.97
2022-10-21T05:23:40.053Z,33.40
2022-10-21T05:26:07.148Z,32.90
2022-10-21T05:28:34.282Z,32.07
2022-10-21T05:31:01.239Z,32.80
2022-10-21T05:33:28.654Z,33.00
2022-10-21T05:36:01.818Z,32.30
2022-10-21T05:38:29.660Z,33.40
2022-10-21T05:40:57.313Z,32.33
2022-10-21T05:43:24.937Z,31.53
2022-10-21T05:45:51.986Z,33.07
2022-10-21T05:48:19.266Z,33.60
2022-10-21T05:50:47.514Z,32.27
2022-10-21T05:53:14.838Z,35.03
2022-10-21T05:55:41.815Z,32.73
2022-10-21T05:58:09.077Z,31.93
2022-10-21T06:00:36.254Z,31.20
2022-10-21T06:03:03.347Z,33.97
2022-10-21T06:05:30.344Z,33.20
2022-10-21T06:07:57.284Z,33.07
2022-10-21T06:10:28.262Z,33.03
2022-10-21T06:12:56.430Z,33.47
2022-10-21T06:15:23.417Z,31.63
2022-10-21T06:17:51.989Z,32.63
2022-10-21T06:20:19.185Z,33.87
2022-10-21T06:22:46.217Z,31.57
2022-10-21T06:25:13.308Z,31.87
2022-10-21T06:27:40.825Z,31.07
2022-10-21T06:30:08.896Z,32.37
2022-10-21T06:32:35.959Z,33.27
2022-10-21T06:35:03.175Z,32.87
2022-10-21T06:37:30.174Z,35.00
2022-10-21T06:39:57.224Z,33.03
2022-10-21T06:42:24.210Z,35.57
2022-10-21T06:44:52.738Z,32.33
2022-10-21T06:47:21.452Z,35.63
2022-10-21T06:49:48.432Z,35.83
2022-10-21T06:52:15.610Z,37.13
2022-10-21T06:54:42.574Z,37.77
2022-10-21T06:57:09.564Z,39.07
2022-10-21T06:59:36.512Z,41.07
2022-10-21T07:02:03.478Z,41.33
2022-10-21T07:04:30.495Z,43.17
2022-10-21T07:06:57.698Z,42.73
2022-10-21T07:09:24.723Z,42.93
2022-10-21T07:11:51.773Z,44.67
2022-10-21T07:14:18.726Z,43.00
2022-10-21T07:16:45.844Z,43.17
2022-10-21T07:19:12.774Z,44.67
2022-10-21T07:21:39.752Z,43.80
2022-10-21T07:24:06.771Z,47.27
2022-10-21T07:26:35.047Z,46.53
2022-10-21T07:29:02.468Z,40.03
2022-10-21T07:31:36.034Z,39.50
2022-10-21T07:36:40.650Z,41.17
2022-10-21T07:39:12.787Z,38.87
2022-10-21T07:41:48.862Z,39.93
2022-10-21T07:44:16.460Z,37.53
2022-10-21T07:46:44.355Z,42.90
2022-10-21T07:49:13.153Z,61.40
2022-10-21T07:51:40.724Z,60.97
2022-10-21T07:54:07.889Z,60.47
2022-10-21T07:56:38.974Z,63.57
2022-10-21T07:59:11.653Z,61.20
2022-10-21T08:01:44.602Z,63.37
2022-10-21T08:04:14.277Z,61.63
2022-10-21T08:06:41.927Z,61.43
2022-10-21T08:09:08.975Z,61.23
2022-10-21T08:11:35.989Z,58.77
2022-10-21T08:14:07.560Z,59.03
2022-10-21T08:16:34.912Z,53.50
2022-10-21T08:19:02.729Z,52.53
2022-10-21T08:21:31.272Z,54.37
2022-10-21T08:23:59.437Z,52.13
2022-10-21T08:26:26.516Z,53.50
2022-10-21T08:28:53.619Z,53.90
2022-10-21T08:31:22.578Z,50.20
2022-10-21T08:33:50.021Z,49.10
2022-10-21T08:36:23.012Z,49.90
2022-10-21T08:38:50.269Z,50.10
2022-10-21T08:41:29.027Z,49.23
2022-10-21T08:44:02.357Z,48.43
2022-10-21T08:46:47.264Z,48.03
2022-10-21T08:49:29.868Z,49.00
2022-10-21T08:52:04.927Z,46.93
2022-10-21T08:54:47.730Z,50.10
2022-10-21T08:57:15.227Z,44.17
2022-10-21T08:59:42.844Z,42.43
2022-10-21T09:02:12.859Z,40.13
2022-10-21T09:05:01.695Z,42.80
2022-10-21T09:07:42.157Z,45.47
2022-10-21T09:10:33.392Z,44.67
2022-10-21T09:13:12.559Z,44.80
2022-10-21T09:16:03.533Z,45.77
2022-10-21T09:18:54.407Z,46.47
2022-10-21T09:21:49.475Z,44.67
2022-10-21T09:24:27.884Z,34.40
2022-10-21T09:26:56.160Z,33.60
2022-10-21T09:29:31.910Z,31.63
2022-10-21T09:32:19.811Z,31.30
2022-10-21T09:34:49.874Z,30.90
2022-10-21T09:37:35.423Z,31.40
2022-10-21T09:40:19.547Z,29.30
2022-10-21T09:42:50.705Z,30.17
2022-10-21T09:45:21.033Z,29.43
2022-10-21T09:47:54.097Z,31.30
2022-10-21T09:50:21.353Z,34.17
2022-10-21T09:52:57.503Z,38.40
2022-10-21T09:55:26.022Z,37.07
2022-10-21T09:57:59.182Z,40.17
2022-10-21T10:00:50.153Z,35.07
2022-10-21T10:03:34.389Z,36.23
2022-10-21T10:06:02.650Z,38.70
2022-10-21T10:08:43.568Z,37.67
2022-10-21T10:11:10.546Z,34.70
2022-10-21T10:13:43.818Z,37.03
2022-10-21T10:16:16.852Z,37.03
2022-10-21T10:18:44.745Z,36.97
2022-10-21T10:21:11.706Z,35.50
2022-10-21T10:23:53.562Z,36.97
2022-10-21T10:26:33.062Z,37.73
2022-10-21T10:29:27.959Z,36.20
2022-10-21T10:32:00.759Z,38.63
2022-10-21T10:34:35.360Z,36.67
2022-10-21T10:37:07.162Z,37.33
2022-10-21T10:39:37.651Z,34.93
2022-10-21T10:42:05.074Z,34.70
2022-10-21T10:44:41.376Z,35.93
2022-10-21T10:47:23.523Z,33.40
2022-10-21T10:49:51.692Z,34.67
2022-10-21T10:52:26.970Z,36.33
2022-10-21T10:55:17.171Z,35.03
2022-10-21T10:58:09.399Z,34.37
2022-10-21T11:00:42.685Z,36.10
2022-10-21T11:03:25.177Z,33.97
2022-10-21T11:05:57.854Z,34.17
2022-10-21T11:08:34.223Z,34.37
2022-10-21T11:11:05.869Z,33.50
2022-10-21T11:13:41.227Z,34.00
2022-10-21T11:16:44.888Z,33.77
2022-10-21T11:20:01.907Z,33.40
2022-10-21T11:22:41.444Z,36.30
2022-10-21T11:25:43.456Z,37.87
2022-10-21T11:28:20.373Z,38.60
2022-10-21T11:31:17.422Z,37.13
2022-10-21T11:33:47.404Z,35.70
2022-10-21T11:36:23.689Z,35.27
2022-10-21T11:39:38.622Z,35.63
2022-10-21T11:42:17.429Z,34.97
2022-10-21T11:45:03.149Z,33.03
2022-10-21T11:47:36.187Z,35.73
2022-10-21T11:50:32.466Z,36.00
2022-10-21T11:53:30.245Z,33.40
2022-10-21T11:56:15.179Z,33.83
2022-10-21T11:59:04.375Z,34.10
2022-10-21T12:01:47.103Z,35.93
2022-10-21T12:04:49.359Z,36.03
2022-10-21T12:07:45.223Z,36.67
2022-10-21T12:10:39.475Z,36.37
2022-10-21T12:13:20.052Z,36.53
2022-10-21T12:15:51.917Z,37.13
2022-10-21T12:18:22.965Z,35.67
2022-10-21T12:20:53.635Z,36.70
2022-10-21T12:23:24.572Z,37.00
2022-10-21T12:26:03.439Z,37.13
2022-10-21T12:28:45.914Z,37.20
2022-10-21T12:31:35.981Z,36.47
2022-10-21T12:34:03.800Z,37.57
2022-10-21T12:36:40.817Z,37.37
2022-10-21T12:39:35.549Z,37.40
2022-10-21T12:42:28.681Z,36.57
2022-10-21T12:44:55.859Z,38.63
2022-10-21T12:47:34.759Z,38.40
2022-10-21T12:50:29.641Z,37.30
2022-10-21T12:53:15.248Z,39.00
2022-10-21T12:55:50.094Z,37.60
2022-10-21T12:58:43.987Z,39.80
2022-10-21T13:01:33.493Z,39.07
2022-10-21T13:04:00.787Z,38.53
2022-10-21T13:06:56.684Z,38.50
2022-10-21T13:09:56.693Z,37.23
2022-10-21T13:12:23.789Z,37.77
2022-10-21T13:14:59.118Z,38.07
2022-10-21T13:17:32.929Z,37.50
2022-10-21T13:20:15.342Z,38.07
2022-10-21T13:22:44.789Z,38.73
2022-10-21T13:25:25.862Z,37.90
2022-10-21T13:28:02.998Z,37.07
2022-10-21T13:30:35.753Z,37.77
2022-10-21T13:33:15.505Z,38.83
2022-10-21T13:35:47.804Z,38.27
2022-10-21T13:38:23.646Z,39.33
2022-10-21T13:40:57.044Z,38.60
2022-10-21T13:43:48.936Z,39.70
2022-10-21T13:46:24.001Z,37.77
2022-10-21T13:48:50.986Z,38.93
2022-10-21T13:51:25.235Z,39.33
2022-10-21T13:54:10.773Z,39.10
2022-10-21T13:56:38.830Z,37.87
2022-10-21T13:59:07.662Z,37.80
2022-10-21T14:01:46.402Z,38.77
2022-10-21T14:04:21.930Z,39.13
2022-10-21T14:06:58.032Z,38.90
2022-10-21T14:09:32.052Z,39.30
2022-10-21T14:12:02.709Z,40.93
2022-10-21T14:14:32.064Z,38.97
2022-10-21T14:17:15.601Z,37.90
2022-10-21T14:19:47.709Z,41.47
2022-10-21T14:22:20.059Z,41.27
2022-10-21T14:24:49.864Z,41.80
2022-10-21T14:27:26.937Z,40.60
2022-10-21T14:29:55.499Z,42.30
2022-10-21T14:32:25.612Z,40.73
2022-10-21T14:35:01.126Z,39.57
2022-10-21T14:37:35.684Z,40.13
2022-10-21T14:40:31.866Z,38.93
2022-10-21T14:43:08.700Z,39.57
2022-10-21T14:45:43.797Z,38.10
2022-10-21T14:48:21.239Z,37.00
2022-10-21T14:51:01.637Z,39.23
2022-10-21T14:53:33.944Z,40.10
2022-10-21T14:56:04.409Z,40.67
2022-10-21T14:58:38.328Z,40.43
2022-10-21T15:01:12.619Z,39.40
2022-10-21T15:03:43.995Z,39.67
2022-10-21T15:06:15.738Z,38.33
2022-10-21T15:09:06.397Z,37.27
2022-10-21T15:11:39.817Z,38.63
2022-10-21T15:14:06.777Z,39.10
2022-10-21T15:19:10.208Z,37.20
2022-10-21T15:21:46.412Z,36.60
2022-10-21T15:24:28.340Z,38.10
2022-10-21T15:26:59.533Z,39.20
2022-10-21T15:29:28.459Z,40.63
2022-10-21T15:31:58.829Z,38.57
2022-10-21T15:34:25.882Z,38.43
2022-10-21T15:36:52.873Z,38.93
2022-10-21T15:39:20.045Z,39.93
2022-10-21T15:41:50.107Z,40.23
2022-10-21T15:44:26.757Z,38.70
2022-10-21T15:47:01.111Z,40.03
2022-10-21T15:49:41.377Z,37.80
2022-10-21T15:52:09.197Z,39.83
2022-10-21T15:54:36.787Z,37.33
2022-10-21T15:57:19.427Z,39.27
2022-10-21T15:59:47.564Z,38.97
2022-10-21T16:02:17.128Z,41.53
2022-10-21T16:04:44.998Z,41.90
2022-10-21T16:07:22.721Z,40.10
2022-10-21T16:09:49.832Z,40.00
2022-10-21T16:12:19.532Z,39.90
2022-10-21T16:14:46.577Z,41.23
2022-10-21T16:17:14.477Z,41.27
2022-10-21T16:19:42.575Z,41.00
2022-10-21T16:22:22.800Z,41.33
2022-10-21T16:24:49.742Z,40.47
2022-10-21T16:27:30.950Z,40.07
2022-10-21T16:30:15.855Z,39.53
2022-10-21T16:32:42.872Z,41.77
2022-10-21T16:35:11.051Z,45.23
2022-10-21T16:37:38.923Z,41.30
2022-10-21T16:40:20.942Z,42.27
2022-10-21T16:42:49.282Z,39.27
2022-10-21T16:45:17.032Z,39.57
2022-10-21T16:47:48.450Z,39.63
2022-10-21T16:50:22.646Z,38.93
2022-10-21T16:52:50.050Z,39.23
2022-10-21T16:55:18.853Z,37.20
2022-10-21T16:57:45.877Z,39.70
2022-10-21T17:00:14.094Z,42.13
2022-10-21T17:02:42.859Z,40.27
2022-10-21T17:05:13.407Z,41.87
2022-10-21T17:07:41.019Z,41.40
2022-10-21T17:10:08.996Z,39.97
2022-10-21T17:12:36.119Z,39.00
2022-10-21T17:15:03.832Z,39.07
2022-10-21T17:17:31.268Z,39.43
2022-10-21T17:19:58.261Z,41.77
2022-10-21T17:22:25.415Z,42.13
2022-10-21T17:24:52.376Z,43.23
2022-10-21T17:27:19.782Z,42.30
2022-10-21T17:29:46.966Z,42.23
2022-10-21T17:32:13.970Z,41.27
2022-10-21T17:34:41.369Z,41.67
2022-10-21T17:37:10.506Z,38.60
2022-10-21T17:39:37.757Z,37.53
2022-10-21T17:42:04.846Z,37.20
2022-10-21T17:44:31.990Z,38.97
2022-10-21T17:46:58.904Z,37.60
2022-10-21T17:49:26.977Z,37.37
2022-10-21T17:51:54.337Z,39.33
2022-10-21T17:54:24.645Z,36.83
2022-10-21T17:56:56.742Z,36.30
2022-10-21T17:59:24.550Z,37.00
2022-10-21T18:01:51.544Z,37.93
2022-10-21T18:04:18.705Z,35.97
2022-10-21T18:06:45.731Z,35.33
2022-10-21T18:09:12.840Z,33.90
2022-10-21T18:11:39.949Z,30.57
2022-10-21T18:14:06.917Z,30.93
2022-10-21T18:16:34.923Z,27.97
2022-10-21T18:19:03.081Z,28.03
2022-10-21T18:21:30.991Z,28.40
2022-10-21T18:23:58.027Z,27.23
2022-10-21T18:26:30.632Z,24.27
2022-10-21T18:29:03.440Z,26.33
2022-10-21T18:31:35.456Z,25.43
2022-10-21T18:34:04.999Z,24.57
2022-10-21T18:36:32.602Z,24.40
2022-10-21T18:39:00.326Z,22.87
2022-10-21T18:41:27.618Z,23.47
2022-10-21T18:43:57.468Z,23.10
2022-10-21T18:46:24.671Z,22.27
2022-10-21T18:48:51.717Z,21.83
2022-10-21T18:51:20.805Z,22.40
2022-10-21T18:53:49.955Z,21.37
2022-10-21T18:56:21.368Z,20.73
2022-10-21T18:58:48.675Z,22.53
2022-10-21T19:01:16.389Z,19.47
2022-10-21T19:03:43.629Z,20.47
2022-10-21T19:06:32.005Z,19.90
2022-10-21T19:09:03.411Z,18.67
2022-10-21T19:11:30.520Z,19.10
2022-10-21T19:13:57.678Z,18.70
2022-10-21T19:16:24.728Z,18.57
2022-10-21T19:18:51.931Z,18.83
2022-10-21T19:21:20.356Z,18.87
2022-10-21T19:23:47.627Z,18.00
2022-10-21T19:26:16.867Z,19.73
2022-10-21T19:28:44.956Z,17.07
2022-10-21T19:31:11.991Z,18.73
2022-10-21T19:33:39.955Z,16.13
2022-10-21T19:36:07.875Z,15.90
2022-10-21T19:38:50.803Z,17.60
2022-10-21T19:41:22.057Z,15.70
2022-10-21T19:43:53.132Z,14.37
2022-10-21T19:46:25.510Z,14.80
2022-10-21T19:48:53.525Z,14.60
2022-10-21T19:51:23.116Z,14.20
2022-10-21T19:53:51.206Z,14.00
2022-10-21T19:56:23.747Z,13.57
2022-10-21T19:58:54.478Z,13.87
2022-10-21T20:01:24.761Z,12.73
2022-10-21T20:03:53.521Z,14.50
2022-10-21T20:06:29.880Z,12.20
2022-10-21T20:08:59.137Z,12.70
2022-10-21T20:11:27.132Z,13.40
2022-10-21T20:13:54.785Z,13.90
2022-10-21T20:16:30.409Z,12.80
2022-10-21T20:18:57.813Z,12.87
2022-10-21T20:21:25.415Z,14.73
2022-10-21T20:23:52.367Z,13.00
2022-10-21T20:26:19.776Z,12.67
2022-10-21T20:28:46.955Z,12.67
2022-10-21T20:31:16.307Z,13.20
2022-10-21T20:33:48.930Z,12.37
2022-10-21T20:36:18.602Z,13.77
2022-10-21T20:38:46.367Z,12.57
2022-10-21T20:41:15.987Z,12.23
2022-10-21T20:43:43.762Z,13.73
2022-10-21T20:46:13.198Z,12.57
2022-10-21T20:48:45.394Z,12.43
2022-10-21T20:51:18.059Z,13.07
2022-10-21T20:53:50.704Z,12.37
2022-10-21T20:56:18.053Z,12.93
2022-10-21T20:58:45.392Z,12.93
2022-10-21T21:01:14.507Z,12.50
2022-10-21T21:03:42.957Z,12.93
2022-10-21T21:06:11.799Z,12.00
2022-10-21T21:08:48.612Z,11.50
2022-10-21T21:11:21.054Z,12.10
2022-10-21T21:13:48.547Z,11.90
2022-10-21T21:16:21.459Z,11.73
2022-10-21T21:18:59.744Z,12.17
2022-10-21T21:21:27.992Z,12.80
2022-10-21T21:23:56.152Z,11.90
2022-10-21T21:26:25.560Z,12.73
2022-10-21T21:28:53.479Z,12.47
2022-10-21T21:31:22.622Z,12.40
2022-10-21T21:33:49.983Z,11.33
2022-10-21T21:36:19.487Z,11.40
2022-10-21T21:38:46.514Z,11.23
2022-10-21T21:41:15.180Z,11.47
2022-10-21T21:43:43.725Z,11.10
2022-10-21T21:46:10.763Z,11.53
2022-10-21T21:48:37.780Z,11.60
2022-10-21T21:51:09.660Z,11.13
2022-10-21T21:53:37.886Z,11.13
2022-10-21T21:56:07.477Z,10.57
2022-10-21T21:58:34.733Z,10.57
2022-10-21T22:01:15.110Z,10.10
2022-10-21T22:03:42.928Z,11.03
2022-10-21T22:06:10.564Z,10.73
2022-10-21T22:08:39.978Z,10.63
2022-10-21T22:11:13.109Z,11.47
2022-10-21T22:13:40.436Z,9.73
2022-10-21T22:16:13.320Z,9.43
2022-10-21T22:18:40.400Z,9.57
2022-10-21T22:21:10.549Z,8.73
2022-10-21T22:23:38.635Z,8.53
2022-10-21T22:26:06.603Z,8.00
2022-10-21T22:28:33.624Z,8.17
2022-10-21T22:31:03.302Z,8.20
2022-10-21T22:33:30.943Z,7.87
2022-10-21T22:35:58.057Z,7.97
2022-10-21T22:38:25.004Z,8.17
2022-10-21T22:41:00.280Z,7.40
2022-10-21T22:43:27.993Z,7.77
2022-10-21T22:46:01.297Z,7.43
2022-10-21T22:48:42.444Z,7.37
2022-10-21T22:51:09.383Z,6.90
2022-10-21T22:53:36.864Z,7.00
2022-10-21T22:56:04.362Z,7.57
2022-10-21T22:58:31.331Z,6.70
2022-10-21T23:00:58.868Z,7.13
2022-10-21T23:03:25.892Z,6.43
2022-10-21T23:05:53.063Z,7.27
2022-10-21T23:08:20.063Z,6.30
2022-10-21T23:10:50.105Z,5.80
2022-10-21T23:13:17.657Z,6.60
2022-10-21T23:15:45.309Z,6.10
2022-10-21T23:18:12.307Z,6.07
2022-10-21T23:20:39.472Z,6.80
2022-10-21T23:23:06.753Z,6.07
2022-10-21T23:25:33.760Z,6.17
2022-10-21T23:28:00.982Z,6.50
2022-10-21T23:30:27.987Z,6.30
2022-10-21T23:32:55.035Z,6.37
2022-10-21T23:35:22.071Z,6.83
2022-10-21T23:37:49.087Z,6.57
2022-10-21T23:40:16.045Z,5.83
2022-10-21T23:42:43.197Z,5.67
2022-10-21T23:45:11.476Z,6.27
2022-10-21T23:47:40.025Z,6.00
2022-10-21T23:50:08.512Z,5.57
2022-10-21T23:52:36.352Z,6.10
2022-10-21T23:55:04.944Z,6.10
2022-10-21T23:57:32.282Z,5.77
2022-10-21T23:59:59.279Z,5.83
